sensor_id;sensor_type;location;lat;lon;timestamp;temperature;humidity
9668;DHT22;4872;48.316;10.650;2023-03-14T05:07:00;8.20;99.90
9668;DHT22;4872;48.316;10.650;2023-03-14T05:09:27;8.70;99.90
9668;DHT22;4872;48.316;10.650;2023-03-14T05:11:53;8.10;99.90
9668;DHT22;4872;48.316;10.650;2023-03-14T05:14:20;8.20;99.90
9668;DHT22;4872;48.316;10.650;2023-03-14T05:16:47;8.00;99.90
9668;DHT22;4872;48.316;10.650;2023-03-14T05:19:14;8.40;99.90
9668;DHT22;4872;48.316;10.650;2023-03-14T05:21:41;8.30;99.90
9668;DHT22;4872;48.316;10.650;2023-03-14T05:27:50;8.30;99.90
9668;DHT22;4872;48.316;10.650;2023-03-14T05:30:16;8.40;99.90
9668;DHT22;4872;48.316;10.650;2023-03-14T05:32:43;8.20;99.90
9668;DHT22;4872;48.316;10.650;2023-03-14T05:35:13;8.80;99.90
9668;DHT22;4872;48.316;10.650;2023-03-14T05:37:43;8.20;99.90
9668;DHT22;4872;48.316;10.650;2023-03-14T05:40:10;8.40;99.90
9668;DHT22;4872;48.316;10.650;2023-03-14T05:42:37;8.20;99.90
9668;DHT22;4872;48.316;10.650;2023-03-14T05:45:07;8.20;99.90
9668;DHT22;4872;48.316;10.650;2023-03-14T05:47:34;8.20;99.90
9668;DHT22;4872;48.316;10.650;2023-03-14T05:50:00;8.20;99.90
9668;DHT22;4872;48.316;10.650;2023-03-14T05:52:27;8.20;99.90
9668;DHT22;4872;48.316;10.650;2023-03-14T05:54:54;8.20;99.90
9668;DHT22;4872;48.316;10.650;2023-03-14T05:57:21;8.20;99.90
9668;DHT22;4872;48.316;10.650;2023-03-14T05:59:48;8.10;99.90
9668;DHT22;4872;48.316;10.650;2023-03-14T06:02:16;8.10;99.90
9668;DHT22;4872;48.316;10.650;2023-03-14T06:04:43;8.20;99.90
9668;DHT22;4872;48.316;10.650;2023-03-14T06:07:10;7.90;99.90
9668;DHT22;4872;48.316;10.650;2023-03-14T06:09:37;8.40;99.90
9668;DHT22;4872;48.316;10.650;2023-03-14T06:12:05;8.30;99.90
9668;DHT22;4872;48.316;10.650;2023-03-14T06:14:32;8.10;99.90
9668;DHT22;4872;48.316;10.650;2023-03-14T06:16:59;8.10;99.90
9668;DHT22;4872;48.316;10.650;2023-03-14T06:19:27;8.20;99.90
9668;DHT22;4872;48.316;10.650;2023-03-14T06:21:54;8.20;99.90
9668;DHT22;4872;48.316;10.650;2023-03-14T06:24:21;8.30;99.90
9668;DHT22;4872;48.316;10.650;2023-03-14T06:26:48;8.30;99.90
9668;DHT22;4872;48.316;10.650;2023-03-14T06:29:15;8.20;99.90
9668;DHT22;4872;48.316;10.650;2023-03-14T06:31:41;8.30;99.90
9668;DHT22;4872;48.316;10.650;2023-03-14T06:34:08;8.70;99.90
9668;DHT22;4872;48.316;10.650;2023-03-14T06:36:36;8.40;99.90
9668;DHT22;4872;48.316;10.650;2023-03-14T06:39:03;8.50;99.90
9668;DHT22;4872;48.316;10.650;2023-03-14T06:41:30;8.40;99.90
9668;DHT22;4872;48.316;10.650;2023-03-14T06:43:58;8.60;99.90
9668;DHT22;4872;48.316;10.650;2023-03-14T06:46:25;8.40;99.90
9668;DHT22;4872;48.316;10.650;2023-03-14T06:48:52;8.30;99.90
9668;DHT22;4872;48.316;10.650;2023-03-14T06:51:18;8.60;99.90
9668;DHT22;4872;48.316;10.650;2023-03-14T06:53:47;8.40;99.90
9668;DHT22;4872;48.316;10.650;2023-03-14T06:56:14;8.70;99.90
9668;DHT22;4872;48.316;10.650;2023-03-14T06:58:41;8.40;99.90
9668;DHT22;4872;48.316;10.650;2023-03-14T07:01:19;9.20;99.90
9668;DHT22;4872;48.316;10.650;2023-03-14T07:03:47;9.20;99.90
9668;DHT22;4872;48.316;10.650;2023-03-14T07:06:13;8.50;99.90
9668;DHT22;4872;48.316;10.650;2023-03-14T07:08:40;8.70;99.90
9668;DHT22;4872;48.316;10.650;2023-03-14T07:11:09;8.70;99.90
9668;DHT22;4872;48.316;10.650;2023-03-14T07:13:36;8.60;99.90
9668;DHT22;4872;48.316;10.650;2023-03-14T07:16:04;8.60;99.90
9668;DHT22;4872;48.316;10.650;2023-03-14T07:18:31;8.60;99.90
9668;DHT22;4872;48.316;10.650;2023-03-14T07:20:58;8.60;99.90
9668;DHT22;4872;48.316;10.650;2023-03-14T07:23:25;8.60;99.90
9668;DHT22;4872;48.316;10.650;2023-03-14T07:25:51;8.60;99.90
9668;DHT22;4872;48.316;10.650;2023-03-14T07:28:20;8.70;99.90
9668;DHT22;4872;48.316;10.650;2023-03-14T07:30:48;8.70;99.90
9668;DHT22;4872;48.316;10.650;2023-03-14T07:33:15;8.70;99.90
9668;DHT22;4872;48.316;10.650;2023-03-14T07:35:42;8.70;99.90
9668;DHT22;4872;48.316;10.650;2023-03-14T07:38:09;8.70;99.90
9668;DHT22;4872;48.316;10.650;2023-03-14T07:40:35;8.70;99.90
9668;DHT22;4872;48.316;10.650;2023-03-14T07:43:02;8.70;99.90
9668;DHT22;4872;48.316;10.650;2023-03-14T07:45:30;8.70;99.80
9668;DHT22;4872;48.316;10.650;2023-03-14T07:47:57;8.80;99.60
9668;DHT22;4872;48.316;10.650;2023-03-14T07:50:25;8.80;99.70
9668;DHT22;4872;48.316;10.650;2023-03-14T07:52:52;8.80;99.70
9668;DHT22;4872;48.316;10.650;2023-03-14T07:55:19;9.00;99.70
9668;DHT22;4872;48.316;10.650;2023-03-14T07:57:46;8.80;99.60
9668;DHT22;4872;48.316;10.650;2023-03-14T08:00:13;8.90;99.70
9668;DHT22;4872;48.316;10.650;2023-03-14T08:02:42;8.90;99.50
9668;DHT22;4872;48.316;10.650;2023-03-14T08:05:09;9.00;99.40
9668;DHT22;4872;48.316;10.650;2023-03-14T08:07:36;9.00;99.50
9668;DHT22;4872;48.316;10.650;2023-03-14T08:10:04;9.10;99.20
9668;DHT22;4872;48.316;10.650;2023-03-14T08:12:32;9.20;99.20
9668;DHT22;4872;48.316;10.650;2023-03-14T08:14:58;9.30;99.20
9668;DHT22;4872;48.316;10.650;2023-03-14T08:17:25;9.50;99.10
9668;DHT22;4872;48.316;10.650;2023-03-14T08:19:54;9.40;98.80
9668;DHT22;4872;48.316;10.650;2023-03-14T08:22:20;9.50;98.50
9668;DHT22;4872;48.316;10.650;2023-03-14T08:24:47;9.50;98.20
9668;DHT22;4872;48.316;10.650;2023-03-14T08:27:14;9.50;98.40
9668;DHT22;4872;48.316;10.650;2023-03-14T08:29:41;9.60;98.00
9668;DHT22;4872;48.316;10.650;2023-03-14T08:32:08;9.70;98.00
9668;DHT22;4872;48.316;10.650;2023-03-14T08:34:34;9.60;97.80
9668;DHT22;4872;48.316;10.650;2023-03-14T08:37:03;9.60;97.80
9668;DHT22;4872;48.316;10.650;2023-03-14T08:39:30;9.70;97.90
9668;DHT22;4872;48.316;10.650;2023-03-14T08:41:56;9.90;97.80
9668;DHT22;4872;48.316;10.650;2023-03-14T08:44:23;10.00;97.00
9668;DHT22;4872;48.316;10.650;2023-03-14T08:46:50;10.10;97.40
9668;DHT22;4872;48.316;10.650;2023-03-14T08:49:17;10.30;96.60
9668;DHT22;4872;48.316;10.650;2023-03-14T08:51:44;10.40;96.60
9668;DHT22;4872;48.316;10.650;2023-03-14T08:54:12;10.40;96.50
9668;DHT22;4872;48.316;10.650;2023-03-14T08:56:39;10.50;96.30
9668;DHT22;4872;48.316;10.650;2023-03-14T08:59:06;10.60;96.10
9668;DHT22;4872;48.316;10.650;2023-03-14T09:01:33;10.80;96.00
9668;DHT22;4872;48.316;10.650;2023-03-14T09:04:00;10.50;95.50
9668;DHT22;4872;48.316;10.650;2023-03-14T09:06:27;10.50;95.40
9668;DHT22;4872;48.316;10.650;2023-03-14T09:08:54;10.50;95.50
9668;DHT22;4872;48.316;10.650;2023-03-14T09:11:22;10.60;95.80
9668;DHT22;4872;48.316;10.650;2023-03-14T09:13:49;10.60;95.30
9668;DHT22;4872;48.316;10.650;2023-03-14T09:16:16;10.60;94.70
9668;DHT22;4872;48.316;10.650;2023-03-14T09:18:42;10.80;95.20
9668;DHT22;4872;48.316;10.650;2023-03-14T09:21:09;10.90;94.50
9668;DHT22;4872;48.316;10.650;2023-03-14T09:23:36;11.10;94.40
9668;DHT22;4872;48.316;10.650;2023-03-14T09:26:03;11.10;93.90
9668;DHT22;4872;48.316;10.650;2023-03-14T09:28:31;11.20;94.30
9668;DHT22;4872;48.316;10.650;2023-03-14T09:30:58;11.40;93.50
9668;DHT22;4872;48.316;10.650;2023-03-14T09:33:24;11.50;93.70
9668;DHT22;4872;48.316;10.650;2023-03-14T09:35:51;11.60;92.90
9668;DHT22;4872;48.316;10.650;2023-03-14T09:38:18;11.80;92.90
9668;DHT22;4872;48.316;10.650;2023-03-14T09:40:46;12.00;92.70
9668;DHT22;4872;48.316;10.650;2023-03-14T09:43:14;12.10;92.50
9668;DHT22;4872;48.316;10.650;2023-03-14T09:45:44;12.40;92.60
9668;DHT22;4872;48.316;10.650;2023-03-14T09:48:16;12.10;91.70
9668;DHT22;4872;48.316;10.650;2023-03-14T09:50:46;11.90;91.80
9668;DHT22;4872;48.316;10.650;2023-03-14T09:53:18;12.00;92.10
9668;DHT22;4872;48.316;10.650;2023-03-14T09:55:46;12.20;92.10
9668;DHT22;4872;48.316;10.650;2023-03-14T09:58:16;12.20;91.80
9668;DHT22;4872;48.316;10.650;2023-03-14T10:00:46;12.00;91.70
9668;DHT22;4872;48.316;10.650;2023-03-14T10:03:25;12.20;91.60
9668;DHT22;4872;48.316;10.650;2023-03-14T10:05:52;12.10;91.70
9668;DHT22;4872;48.316;10.650;2023-03-14T10:08:19;12.20;91.30
9668;DHT22;4872;48.316;10.650;2023-03-14T10:10:46;12.30;92.10
9668;DHT22;4872;48.316;10.650;2023-03-14T10:13:16;12.50;91.00
9668;DHT22;4872;48.316;10.650;2023-03-14T10:15:51;12.60;91.20
9668;DHT22;4872;48.316;10.650;2023-03-14T10:18:18;12.80;91.10
9668;DHT22;4872;48.316;10.650;2023-03-14T10:20:46;13.00;91.30
9668;DHT22;4872;48.316;10.650;2023-03-14T10:23:24;13.40;90.70
9668;DHT22;4872;48.316;10.650;2023-03-14T10:26:08;13.60;90.20
9668;DHT22;4872;48.316;10.650;2023-03-14T10:28:41;13.50;90.10
9668;DHT22;4872;48.316;10.650;2023-03-14T10:31:11;12.90;88.30
9668;DHT22;4872;48.316;10.650;2023-03-14T10:33:39;12.70;89.40
9668;DHT22;4872;48.316;10.650;2023-03-14T10:36:17;12.90;89.80
9668;DHT22;4872;48.316;10.650;2023-03-14T10:38:46;12.90;89.30
9668;DHT22;4872;48.316;10.650;2023-03-14T10:41:17;13.00;89.90
9668;DHT22;4872;48.316;10.650;2023-03-14T10:43:45;13.00;87.20
9668;DHT22;4872;48.316;10.650;2023-03-14T10:46:18;13.10;87.40
9668;DHT22;4872;48.316;10.650;2023-03-14T10:48:46;13.10;87.20
9668;DHT22;4872;48.316;10.650;2023-03-14T10:51:19;12.90;87.00
9668;DHT22;4872;48.316;10.650;2023-03-14T10:53:56;12.70;87.50
9668;DHT22;4872;48.316;10.650;2023-03-14T10:56:24;12.60;89.00
9668;DHT22;4872;48.316;10.650;2023-03-14T10:58:54;12.60;88.00
9668;DHT22;4872;48.316;10.650;2023-03-14T11:01:38;12.60;88.30
9668;DHT22;4872;48.316;10.650;2023-03-14T11:04:15;12.40;87.80
9668;DHT22;4872;48.316;10.650;2023-03-14T11:06:50;12.50;88.30
9668;DHT22;4872;48.316;10.650;2023-03-14T11:09:25;12.50;87.70
9668;DHT22;4872;48.316;10.650;2023-03-14T11:12:01;12.80;87.80
9668;DHT22;4872;48.316;10.650;2023-03-14T11:14:34;13.20;87.00
9668;DHT22;4872;48.316;10.650;2023-03-14T11:17:12;13.30;86.90
9668;DHT22;4872;48.316;10.650;2023-03-14T11:20:01;13.60;85.80
9668;DHT22;4872;48.316;10.650;2023-03-14T11:22:38;13.80;85.70
9668;DHT22;4872;48.316;10.650;2023-03-14T11:25:14;13.40;85.70
9668;DHT22;4872;48.316;10.650;2023-03-14T11:27:45;13.00;86.10
9668;DHT22;4872;48.316;10.650;2023-03-14T11:30:20;12.70;86.00
9668;DHT22;4872;48.316;10.650;2023-03-14T11:32:56;12.60;86.70
9668;DHT22;4872;48.316;10.650;2023-03-14T11:35:30;12.30;85.60
9668;DHT22;4872;48.316;10.650;2023-03-14T11:38:07;12.60;86.10
9668;DHT22;4872;48.316;10.650;2023-03-14T11:40:38;12.30;86.10
9668;DHT22;4872;48.316;10.650;2023-03-14T11:43:11;12.30;85.40
9668;DHT22;4872;48.316;10.650;2023-03-14T11:45:41;12.30;85.50
9668;DHT22;4872;48.316;10.650;2023-03-14T11:48:23;12.40;85.90
9668;DHT22;4872;48.316;10.650;2023-03-14T11:50:53;12.20;86.20
9668;DHT22;4872;48.316;10.650;2023-03-14T11:53:25;12.20;86.30
9668;DHT22;4872;48.316;10.650;2023-03-14T11:55:56;12.70;86.20
9668;DHT22;4872;48.316;10.650;2023-03-14T11:58:26;12.10;86.20
9668;DHT22;4872;48.316;10.650;2023-03-14T12:00:54;12.50;86.40
9668;DHT22;4872;48.316;10.650;2023-03-14T12:03:31;12.40;86.20
9668;DHT22;4872;48.316;10.650;2023-03-14T12:06:06;12.80;86.50
9668;DHT22;4872;48.316;10.650;2023-03-14T12:08:46;12.80;86.20
9668;DHT22;4872;48.316;10.650;2023-03-14T12:11:18;12.90;87.50
9668;DHT22;4872;48.316;10.650;2023-03-14T12:13:48;12.70;85.90
9668;DHT22;4872;48.316;10.650;2023-03-14T12:16:34;12.40;85.70
9668;DHT22;4872;48.316;10.650;2023-03-14T12:19:37;12.20;85.90
9668;DHT22;4872;48.316;10.650;2023-03-14T12:22:26;12.20;87.80
9668;DHT22;4872;48.316;10.650;2023-03-14T12:24:57;12.20;87.80
9668;DHT22;4872;48.316;10.650;2023-03-14T12:30:39;11.80;87.30
9668;DHT22;4872;48.316;10.650;2023-03-14T12:33:31;11.80;87.50
9668;DHT22;4872;48.316;10.650;2023-03-14T12:36:04;12.00;88.30
9668;DHT22;4872;48.316;10.650;2023-03-14T12:38:45;12.00;87.80
9668;DHT22;4872;48.316;10.650;2023-03-14T12:41:16;12.10;88.30
9668;DHT22;4872;48.316;10.650;2023-03-14T12:43:44;12.00;88.20
9668;DHT22;4872;48.316;10.650;2023-03-14T12:46:22;11.60;89.50
9668;DHT22;4872;48.316;10.650;2023-03-14T12:48:50;11.60;90.80
9668;DHT22;4872;48.316;10.650;2023-03-14T12:51:29;11.60;90.20
9668;DHT22;4872;48.316;10.650;2023-03-14T12:54:19;11.70;90.00
9668;DHT22;4872;48.316;10.650;2023-03-14T12:56:59;11.70;89.50
9668;DHT22;4872;48.316;10.650;2023-03-14T12:59:32;11.60;90.20
9668;DHT22;4872;48.316;10.650;2023-03-14T13:02:01;11.60;89.80
9668;DHT22;4872;48.316;10.650;2023-03-14T13:04:32;11.50;90.30
9668;DHT22;4872;48.316;10.650;2023-03-14T13:07:02;11.30;90.30
9668;DHT22;4872;48.316;10.650;2023-03-14T13:10:00;11.00;91.20
9668;DHT22;4872;48.316;10.650;2023-03-14T13:12:30;10.70;92.00
9668;DHT22;4872;48.316;10.650;2023-03-14T13:15:01;10.50;92.40
9668;DHT22;4872;48.316;10.650;2023-03-14T13:17:33;10.30;93.00
9668;DHT22;4872;48.316;10.650;2023-03-14T13:20:03;10.20;93.90
9668;DHT22;4872;48.316;10.650;2023-03-14T13:22:34;10.10;93.00
9668;DHT22;4872;48.316;10.650;2023-03-14T13:25:05;9.90;93.50
9668;DHT22;4872;48.316;10.650;2023-03-14T13:27:34;9.80;94.10
9668;DHT22;4872;48.316;10.650;2023-03-14T13:30:12;9.80;94.30
9668;DHT22;4872;48.316;10.650;2023-03-14T13:32:42;9.60;94.80
9668;DHT22;4872;48.316;10.650;2023-03-14T13:35:15;9.60;95.40
9668;DHT22;4872;48.316;10.650;2023-03-14T13:37:43;9.50;95.20
9668;DHT22;4872;48.316;10.650;2023-03-14T13:40:20;9.30;96.10
9668;DHT22;4872;48.316;10.650;2023-03-14T13:42:47;9.20;96.60
9668;DHT22;4872;48.316;10.650;2023-03-14T13:45:14;9.20;96.70
9668;DHT22;4872;48.316;10.650;2023-03-14T13:47:41;9.20;96.80
9668;DHT22;4872;48.316;10.650;2023-03-14T13:50:15;9.10;97.00
9668;DHT22;4872;48.316;10.650;2023-03-14T13:52:43;9.00;97.30
9668;DHT22;4872;48.316;10.650;2023-03-14T13:55:15;9.00;97.50
9668;DHT22;4872;48.316;10.650;2023-03-14T13:57:44;9.10;97.30
9668;DHT22;4872;48.316;10.650;2023-03-14T14:00:19;9.10;97.50
9668;DHT22;4872;48.316;10.650;2023-03-14T14:02:47;8.90;97.60
9668;DHT22;4872;48.316;10.650;2023-03-14T14:05:14;8.90;98.00
9668;DHT22;4872;48.316;10.650;2023-03-14T14:07:44;8.60;98.90
9668;DHT22;4872;48.316;10.650;2023-03-14T14:10:12;8.80;99.20
9668;DHT22;4872;48.316;10.650;2023-03-14T14:12:42;8.50;99.90
9668;DHT22;4872;48.316;10.650;2023-03-14T14:15:13;8.20;99.90
9668;DHT22;4872;48.316;10.650;2023-03-14T14:17:46;8.40;99.90
9668;DHT22;4872;48.316;10.650;2023-03-14T14:20:20;8.10;99.90
9668;DHT22;4872;48.316;10.650;2023-03-14T14:22:49;8.40;99.90
9668;DHT22;4872;48.316;10.650;2023-03-14T14:25:17;7.90;99.90
9668;DHT22;4872;48.316;10.650;2023-03-14T14:27:47;7.70;99.90
9668;DHT22;4872;48.316;10.650;2023-03-14T14:30:32;7.90;99.90
9668;DHT22;4872;48.316;10.650;2023-03-14T14:33:18;7.50;99.90
9668;DHT22;4872;48.316;10.650;2023-03-14T14:35:54;7.50;99.90
9668;DHT22;4872;48.316;10.650;2023-03-14T14:38:24;7.40;99.90
9668;DHT22;4872;48.316;10.650;2023-03-14T14:40:54;7.40;99.90
9668;DHT22;4872;48.316;10.650;2023-03-14T14:43:23;7.50;99.90
9668;DHT22;4872;48.316;10.650;2023-03-14T14:45:52;7.50;99.90
9668;DHT22;4872;48.316;10.650;2023-03-14T14:48:22;7.60;99.90
9668;DHT22;4872;48.316;10.650;2023-03-14T14:50:54;7.90;99.90
9668;DHT22;4872;48.316;10.650;2023-03-14T14:53:26;8.40;99.90
9668;DHT22;4872;48.316;10.650;2023-03-14T14:55:55;9.00;98.50
9668;DHT22;4872;48.316;10.650;2023-03-14T14:58:25;9.90;97.80
9668;DHT22;4872;48.316;10.650;2023-03-14T15:00:55;10.50;95.60
9668;DHT22;4872;48.316;10.650;2023-03-14T15:03:26;10.20;95.70
9668;DHT22;4872;48.316;10.650;2023-03-14T15:05:54;10.10;94.00
9668;DHT22;4872;48.316;10.650;2023-03-14T15:08:22;10.80;93.20
9668;DHT22;4872;48.316;10.650;2023-03-14T15:10:51;10.90;92.40
9668;DHT22;4872;48.316;10.650;2023-03-14T15:13:18;11.00;91.00
9668;DHT22;4872;48.316;10.650;2023-03-14T15:15:45;11.00;91.10
9668;DHT22;4872;48.316;10.650;2023-03-14T15:18:14;9.90;91.20
9668;DHT22;4872;48.316;10.650;2023-03-14T15:20:41;10.80;90.80
9668;DHT22;4872;48.316;10.650;2023-03-14T15:23:10;11.70;88.60
9668;DHT22;4872;48.316;10.650;2023-03-14T15:25:37;11.70;87.70
9668;DHT22;4872;48.316;10.650;2023-03-14T15:28:12;12.00;83.70
9668;DHT22;4872;48.316;10.650;2023-03-14T15:30:50;11.90;84.60
9668;DHT22;4872;48.316;10.650;2023-03-14T15:33:18;10.80;85.20
9668;DHT22;4872;48.316;10.650;2023-03-14T15:35:45;10.60;86.50
9668;DHT22;4872;48.316;10.650;2023-03-14T15:38:14;10.00;85.60
9668;DHT22;4872;48.316;10.650;2023-03-14T15:40:41;9.60;87.50
9668;DHT22;4872;48.316;10.650;2023-03-14T15:43:10;8.90;89.10
9668;DHT22;4872;48.316;10.650;2023-03-14T15:45:36;8.70;89.30
9668;DHT22;4872;48.316;10.650;2023-03-14T15:48:04;8.40;88.90
9668;DHT22;4872;48.316;10.650;2023-03-14T15:50:30;8.40;89.40
9668;DHT22;4872;48.316;10.650;2023-03-14T15:52:57;8.30;89.70
9668;DHT22;4872;48.316;10.650;2023-03-14T15:55:24;8.20;90.20
9668;DHT22;4872;48.316;10.650;2023-03-14T15:57:51;8.00;90.20
9668;DHT22;4872;48.316;10.650;2023-03-14T16:00:20;7.90;90.40
9668;DHT22;4872;48.316;10.650;2023-03-14T16:02:48;7.90;90.60
9668;DHT22;4872;48.316;10.650;2023-03-14T16:05:16;7.90;90.70
9668;DHT22;4872;48.316;10.650;2023-03-14T16:07:43;7.80;90.80
9668;DHT22;4872;48.316;10.650;2023-03-14T16:10:11;7.80;90.60
9668;DHT22;4872;48.316;10.650;2023-03-14T16:12:38;7.80;90.70
9668;DHT22;4872;48.316;10.650;2023-03-14T16:15:06;7.80;90.70
9668;DHT22;4872;48.316;10.650;2023-03-14T16:17:35;7.80;90.70
9668;DHT22;4872;48.316;10.650;2023-03-14T16:20:03;7.90;90.40
9668;DHT22;4872;48.316;10.650;2023-03-14T16:22:30;7.80;90.40
9668;DHT22;4872;48.316;10.650;2023-03-14T16:25:02;7.70;88.10
9668;DHT22;4872;48.316;10.650;2023-03-14T16:27:29;7.90;88.10
9668;DHT22;4872;48.316;10.650;2023-03-14T16:29:56;7.50;86.20
9668;DHT22;4872;48.316;10.650;2023-03-14T16:32:23;8.50;85.80
9668;DHT22;4872;48.316;10.650;2023-03-14T16:34:51;7.60;83.60
9668;DHT22;4872;48.316;10.650;2023-03-14T16:37:18;8.10;83.40
9668;DHT22;4872;48.316;10.650;2023-03-14T16:39:46;7.50;82.60
9668;DHT22;4872;48.316;10.650;2023-03-14T16:42:13;8.10;81.70
9668;DHT22;4872;48.316;10.650;2023-03-14T16:44:40;7.20;80.20
9668;DHT22;4872;48.316;10.650;2023-03-14T16:47:07;7.60;79.30
9668;DHT22;4872;48.316;10.650;2023-03-14T16:49:34;7.60;79.80
9668;DHT22;4872;48.316;10.650;2023-03-14T16:52:03;7.50;78.10
9668;DHT22;4872;48.316;10.650;2023-03-14T16:54:30;7.50;78.70
9668;DHT22;4872;48.316;10.650;2023-03-14T16:56:57;7.40;77.70
9668;DHT22;4872;48.316;10.650;2023-03-14T16:59:24;8.00;78.90
9668;DHT22;4872;48.316;10.650;2023-03-14T17:01:53;7.30;76.60
9668;DHT22;4872;48.316;10.650;2023-03-14T17:04:20;7.30;77.40
9668;DHT22;4872;48.316;10.650;2023-03-14T17:06:48;7.40;77.60
9668;DHT22;4872;48.316;10.650;2023-03-14T17:09:17;7.60;77.40
9668;DHT22;4872;48.316;10.650;2023-03-14T17:11:44;7.40;77.40
9668;DHT22;4872;48.316;10.650;2023-03-14T17:14:11;7.10;77.30
9668;DHT22;4872;48.316;10.650;2023-03-14T17:16:38;7.10;78.00
9668;DHT22;4872;48.316;10.650;2023-03-14T17:19:04;7.10;78.60
9668;DHT22;4872;48.316;10.650;2023-03-14T17:21:31;7.20;78.70
9668;DHT22;4872;48.316;10.650;2023-03-14T17:23:58;7.20;79.30
9668;DHT22;4872;48.316;10.650;2023-03-14T17:26:27;7.70;80.10
9668;DHT22;4872;48.316;10.650;2023-03-14T17:28:54;6.80;79.70
9668;DHT22;4872;48.316;10.650;2023-03-14T17:31:21;6.90;79.90
9668;DHT22;4872;48.316;10.650;2023-03-14T17:33:48;7.70;81.10
9668;DHT22;4872;48.316;10.650;2023-03-14T17:36:18;7.50;81.20
9668;DHT22;4872;48.316;10.650;2023-03-14T17:38:47;6.70;80.60
9668;DHT22;4872;48.316;10.650;2023-03-14T17:41:15;6.70;80.80
9668;DHT22;4872;48.316;10.650;2023-03-14T17:43:43;7.00;81.30
9668;DHT22;4872;48.316;10.650;2023-03-14T17:46:12;6.80;80.60
9668;DHT22;4872;48.316;10.650;2023-03-14T17:48:42;7.00;81.70
9668;DHT22;4872;48.316;10.650;2023-03-14T17:51:09;6.60;80.90
9668;DHT22;4872;48.316;10.650;2023-03-14T17:53:36;6.70;80.70
9668;DHT22;4872;48.316;10.650;2023-03-14T17:56:03;6.70;80.90
9668;DHT22;4872;48.316;10.650;2023-03-14T17:58:31;6.70;80.40
9668;DHT22;4872;48.316;10.650;2023-03-14T18:01:09;6.70;80.90
9668;DHT22;4872;48.316;10.650;2023-03-14T18:03:36;6.80;80.80
9668;DHT22;4872;48.316;10.650;2023-03-14T18:06:04;7.10;81.10
9668;DHT22;4872;48.316;10.650;2023-03-14T18:08:33;7.40;80.90
9668;DHT22;4872;48.316;10.650;2023-03-14T18:11:02;6.70;80.20
9668;DHT22;4872;48.316;10.650;2023-03-14T18:13:29;7.40;80.20
9668;DHT22;4872;48.316;10.650;2023-03-14T18:15:56;7.40;79.60
9668;DHT22;4872;48.316;10.650;2023-03-14T18:18:25;7.10;79.40
9668;DHT22;4872;48.316;10.650;2023-03-14T18:20:55;6.90;79.10
9668;DHT22;4872;48.316;10.650;2023-03-14T18:23:22;7.60;79.80
9668;DHT22;4872;48.316;10.650;2023-03-14T18:25:50;7.30;79.70
9668;DHT22;4872;48.316;10.650;2023-03-14T18:28:17;7.10;79.00
9668;DHT22;4872;48.316;10.650;2023-03-14T18:30:45;7.10;79.00
9668;DHT22;4872;48.316;10.650;2023-03-14T18:33:18;7.30;78.60
9668;DHT22;4872;48.316;10.650;2023-03-14T18:35:47;7.00;78.00
9668;DHT22;4872;48.316;10.650;2023-03-14T18:38:15;7.10;78.60
9668;DHT22;4872;48.316;10.650;2023-03-14T18:40:43;7.10;79.00
9668;DHT22;4872;48.316;10.650;2023-03-14T18:43:10;7.10;78.60
9668;DHT22;4872;48.316;10.650;2023-03-14T18:45:37;7.00;78.50
9668;DHT22;4872;48.316;10.650;2023-03-14T18:48:04;7.10;79.00
9668;DHT22;4872;48.316;10.650;2023-03-14T18:50:31;6.90;79.30
9668;DHT22;4872;48.316;10.650;2023-03-14T18:53:00;7.10;79.40
9668;DHT22;4872;48.316;10.650;2023-03-14T18:55:27;7.30;79.70
9668;DHT22;4872;48.316;10.650;2023-03-14T18:57:54;7.10;79.70
9668;DHT22;4872;48.316;10.650;2023-03-14T19:00:21;7.20;79.70
9668;DHT22;4872;48.316;10.650;2023-03-14T19:02:51;7.00;79.80
9668;DHT22;4872;48.316;10.650;2023-03-14T19:05:18;7.00;79.60
9668;DHT22;4872;48.316;10.650;2023-03-14T19:07:45;7.30;80.00
9668;DHT22;4872;48.316;10.650;2023-03-14T19:10:13;7.40;80.30
9668;DHT22;4872;48.316;10.650;2023-03-14T19:12:40;7.10;80.10
9668;DHT22;4872;48.316;10.650;2023-03-14T19:15:08;7.20;80.60
9668;DHT22;4872;48.316;10.650;2023-03-14T19:17:36;7.00;81.30
9668;DHT22;4872;48.316;10.650;2023-03-14T19:20:04;7.50;81.90
9668;DHT22;4872;48.316;10.650;2023-03-14T19:22:31;6.90;81.90
9668;DHT22;4872;48.316;10.650;2023-03-14T19:24:58;6.90;82.10
9668;DHT22;4872;48.316;10.650;2023-03-14T19:27:28;7.20;82.70
9668;DHT22;4872;48.316;10.650;2023-03-14T19:30:00;7.10;83.00
9668;DHT22;4872;48.316;10.650;2023-03-14T19:32:35;6.70;83.60
9668;DHT22;4872;48.316;10.650;2023-03-14T19:35:03;6.80;86.60
9668;DHT22;4872;48.316;10.650;2023-03-14T19:37:30;6.40;89.40
9668;DHT22;4872;48.316;10.650;2023-03-14T19:39:57;6.20;90.50
9668;DHT22;4872;48.316;10.650;2023-03-14T19:42:26;5.90;91.00
9668;DHT22;4872;48.316;10.650;2023-03-14T19:44:53;6.50;92.10
9668;DHT22;4872;48.316;10.650;2023-03-14T19:47:21;6.20;92.60
9668;DHT22;4872;48.316;10.650;2023-03-14T19:49:47;6.30;93.40
9668;DHT22;4872;48.316;10.650;2023-03-14T19:52:14;5.60;93.70
9668;DHT22;4872;48.316;10.650;2023-03-14T19:54:41;5.60;94.20
9668;DHT22;4872;48.316;10.650;2023-03-14T19:57:08;5.50;94.30
9668;DHT22;4872;48.316;10.650;2023-03-14T19:59:37;5.60;95.00
9668;DHT22;4872;48.316;10.650;2023-03-14T20:02:06;5.20;95.00
9668;DHT22;4872;48.316;10.650;2023-03-14T20:04:33;5.20;95.60
9668;DHT22;4872;48.316;10.650;2023-03-14T20:07:00;5.50;96.40
9668;DHT22;4872;48.316;10.650;2023-03-14T20:09:31;5.20;96.30
9668;DHT22;4872;48.316;10.650;2023-03-14T20:11:58;5.10;96.60
9668;DHT22;4872;48.316;10.650;2023-03-14T20:14:25;5.40;97.00
9668;DHT22;4872;48.316;10.650;2023-03-14T20:16:54;5.00;97.10
9668;DHT22;4872;48.316;10.650;2023-03-14T20:19:20;5.00;97.10
9668;DHT22;4872;48.316;10.650;2023-03-14T20:21:48;4.90;97.40
9668;DHT22;4872;48.316;10.650;2023-03-14T20:24:15;5.50;97.60
9668;DHT22;4872;48.316;10.650;2023-03-14T20:26:42;5.10;97.30
9668;DHT22;4872;48.316;10.650;2023-03-14T20:29:09;5.90;97.70
9668;DHT22;4872;48.316;10.650;2023-03-14T20:31:39;4.80;97.40
9668;DHT22;4872;48.316;10.650;2023-03-14T20:34:07;5.30;97.70
9668;DHT22;4872;48.316;10.650;2023-03-14T20:36:34;5.20;98.00
9668;DHT22;4872;48.316;10.650;2023-03-14T20:39:03;4.60;97.70
9668;DHT22;4872;48.316;10.650;2023-03-14T20:41:30;4.80;97.80
9668;DHT22;4872;48.316;10.650;2023-03-14T20:43:57;4.80;98.00
9668;DHT22;4872;48.316;10.650;2023-03-14T20:46:24;4.60;98.30
9668;DHT22;4872;48.316;10.650;2023-03-14T20:48:51;4.90;98.20
9668;DHT22;4872;48.316;10.650;2023-03-14T20:51:19;4.70;98.20
9668;DHT22;4872;48.316;10.650;2023-03-14T20:53:46;4.50;98.40
9668;DHT22;4872;48.316;10.650;2023-03-14T20:56:13;4.90;98.20
9668;DHT22;4872;48.316;10.650;2023-03-14T20:58:39;4.50;98.20
9668;DHT22;4872;48.316;10.650;2023-03-14T21:01:07;4.70;98.20
9668;DHT22;4872;48.316;10.650;2023-03-14T21:03:35;4.70;98.10
9668;DHT22;4872;48.316;10.650;2023-03-14T21:06:01;4.70;98.00
9668;DHT22;4872;48.316;10.650;2023-03-14T21:08:31;4.50;97.80
9668;DHT22;4872;48.316;10.650;2023-03-14T21:10:58;4.60;97.80
9668;DHT22;4872;48.316;10.650;2023-03-14T21:13:25;4.60;97.60
9668;DHT22;4872;48.316;10.650;2023-03-14T21:15:51;4.20;97.50
9668;DHT22;4872;48.316;10.650;2023-03-14T21:18:18;4.70;97.60
9668;DHT22;4872;48.316;10.650;2023-03-14T21:20:47;4.40;97.30
9668;DHT22;4872;48.316;10.650;2023-03-14T21:23:14;4.40;97.30